• Join FlightAware (Why Join?)
  • Login
  • US Flag 
06:09PM EST


 

Airport Tracker/Info


-or-


 

Live Flight TrackerFlight Track Log ✈ ASQ5738 ✈ 28-Apr-2013 ✈ KDTW - KIAD

Flight Track Log - Related Links

Times and Time Zones

All times are in EDT time to prevent confusion due to time zone crossing. See the ASQ5738 flight status page for this flight to view local times or setup timezone preferences in your user account.

Time Position Orientation Groundspeed Altitude Reporting Facility
EDT Latitude Longitude Course Direction KTS MPH feet Rate Location/Type
10:38AM 42.2017 -83.3583 199° South 154 177 1,400  Level Cleveland Center
10:39AM 42.1406 -83.3864 199° South 230 265 3,900 2,356 Climbing Cleveland Center
10:40AM 42.0711 -83.4114 195° South 256 295 6,700 2,791 Climbing Cleveland Center
10:41AM 42.0003 -83.4025 175° South 266 306 9,900 1,907 Climbing Cleveland Center
10:42AM 41.9792 -83.3261 110° East 318 366 10,100 98 Climbing Cleveland Center
10:42AM 41.9864 -83.2844 77° East 347 399 10,000 -100 Descending Cleveland Center
10:43AM 41.9897 -83.2317 85° East 327 376 10,000  Level Cleveland Center
10:44AM 42.0078 -83.0869 80° East 334 384 10,000 1,050 Level Cleveland Center
10:45AM 42.0247 -82.9731 79° East 323 372 12,100 2,000 Climbing Cleveland Center
10:46AM 42.0394 -82.8561 80° East 318 366 14,000 1,650 Climbing Cleveland Center
10:47AM 42.0567 -82.7281 80° East 323 372 15,400 1,300 Climbing Cleveland Center
10:48AM 42.0736 -82.5944 80° East 344 396 16,600 1,200 Climbing Cleveland Center
10:49AM 42.0822 -82.4547 85° East 356 410 17,800 1,200 Climbing Cleveland Center
10:50AM 42.0636 -82.3172 100° East 367 422 19,000 1,100 Climbing Cleveland Center
10:51AM 42.0406 -82.1767 102° East 372 428 20,000 950 Climbing Cleveland Center
10:52AM 41.9986 -82.0444 113° Southeast 381 438 20,900 950 Climbing Cleveland Center
10:53AM 41.9100 -81.9586 144° Southeast 376 433 21,900 900 Climbing Cleveland Center
10:54AM 41.8297 -81.8817 144° Southeast 391 450 22,700 950 Climbing Cleveland Center
10:55AM 41.7389 -81.7964 145° Southeast 402 463 23,800 1,150 Climbing Cleveland Center
10:56AM 41.6500 -81.7114 144° Southeast 402 463 25,000 900 Climbing Cleveland Center
10:57AM 41.5611 -81.6294 145° Southeast 395 455 25,600 600 Climbing Cleveland Center
10:58AM 41.4594 -81.5694 156° South 395 455 26,200 500 Climbing Cleveland Center
10:59AM 41.3578 -81.5125 157° South 401 461 26,600 400 Climbing Cleveland Center
11:00AM 41.2542 -81.4586 159° South 401 461 27,000 200 Climbing Cleveland Center
11:01AM 41.1358 -81.3964 158° South 407 468 27,000  Level Cleveland Center
11:02AM 41.0256 -81.3372 158° South 421 484 27,000  Level Cleveland Center
11:03AM 40.9258 -81.2867 159° South 426 490 27,000  Level Cleveland Center
11:04AM 40.8158 -81.2278 158° South 431 496 27,000  Level Cleveland Center
11:05AM 40.7036 -81.1692 158° South 431 496 27,000  Level Cleveland Center
11:06AM 40.6017 -81.1164 159° South 431 496 27,000  Level Cleveland Center
11:07AM 40.4789 -81.0500 158° South 431 496 27,000  Level Cleveland Center
11:08AM 40.3644 -80.9919 159° South 431 496 27,000  Level Cleveland Center
11:09AM 40.2375 -80.9258 158° South 442 509 27,000  Level Cleveland Center
11:10AM 40.1211 -80.8681 159° South 442 509 27,000  Level Cleveland Center
11:11AM 40.0106 -80.7917 152° Southeast 447 514 27,000  Level Cleveland Center
11:12AM 39.9378 -80.6481 123° Southeast 457 526 27,000  Level Cleveland Center
11:13AM 39.8669 -80.4992 122° Southeast 464 534 27,000  Level Cleveland Center
11:14AM 39.7958 -80.3508 122° Southeast 476 548 27,000  Level Cleveland Center
11:15AM 39.7267 -80.2025 121° Southeast 481 554 27,000  Level Cleveland Center
11:16AM 39.6533 -80.0572 123° Southeast 481 554 27,000  Level Cleveland Center
11:17AM 39.5744 -79.8886 121° Southeast 455 524 27,000  Level Washington Center
11:18AM 39.5342 -79.7300 108° East 447 514 27,000  Level Washington Center
11:19AM 39.5064 -79.5644 102° East 452 520 27,000  Level Washington Center
11:20AM 39.4764 -79.3986 103° East 464 534 27,000 -101 Level Washington Center
11:21AM 39.4442 -79.2278 104° East 476 548 26,800 -1,462 Descending Washington Center
11:22AM 39.4156 -79.0650 103° East 476 548 24,100 -2,656 Descending Washington Center
11:23AM 39.3869 -78.9025 103° East 466 536 21,400 -2,410 Descending Washington Center
11:24AM 39.3631 -78.7781 104° East 460 529 19,200 -2,479 Descending Washington Center
11:25AM 39.3303 -78.5994 103° East 434 499 16,400 -2,700 Descending Washington Center
11:26AM 39.3025 -78.4589 104° East 421 484 13,800 -2,237 Descending Washington Center
11:27AM 39.2700 -78.3314 108° East 394 453 12,000 -1,462 Descending Washington Center
11:28AM 39.2183 -78.2144 120° Southeast 377 434 10,900 -934 Descending Washington Center
11:29AM 39.2311 -78.0997 82° East 330 380 10,100 -893 Descending Washington Center
11:30AM 39.2500 -77.9958 77° East 309 356 9,100 -1,373 Descending Washington Center
11:31AM 39.2625 -77.8969 81° East 296 341 7,400 -1,780 Descending Washington Center
11:32AM 39.2789 -77.8008 78° East 274 315 5,600 -1,200 Descending Washington Center
11:33AM 39.2928 -77.7103 79° East 264 304 5,000 -448 Descending Washington Center
11:34AM 39.2833 -77.6167 97° East 252 290 4,600 -429 Descending Potomac TRACON
11:35AM 39.2167 -77.5500 142° Southeast 234 269 4,000 -550 Descending Potomac TRACON
11:36AM 39.1667 -77.5167 153° Southeast 237 273 3,500 -684 Descending Potomac TRACON
11:37AM 39.1167 -77.4833 153° Southeast 229 264 2,700 -1,000 Descending Potomac TRACON
11:38AM 39.0500 -77.4500 159° South 219 252 1,500 -842 Descending Potomac TRACON
11:39AM 39.0167 -77.4667 201° Southwest 147 169 1,100 -444 Descending Potomac TRACON
11:41AM 38.9474 -77.4599 165° South  Level Estimated
11:48AM 38.9474 -77.4599 165° South  Level Estimated
11:49AM 38.9474 -77.4599 165° South  Level Estimated
11:50AM 38.9474 -77.4599 165° South  Level Estimated